sensor_id;sensor_type;location;lat;lon;timestamp;P1;durP1;ratioP1;P2;durP2;ratioP2
8327;SDS011;4201;48.754;8.864;2023-01-10T00:01:31;5.53;;;1.70;;
8327;SDS011;4201;48.754;8.864;2023-01-10T00:03:58;2.83;;;1.70;;
8327;SDS011;4201;48.754;8.864;2023-01-10T00:06:24;4.03;;;2.07;;
8327;SDS011;4201;48.754;8.864;2023-01-10T00:08:50;5.13;;;2.00;;
8327;SDS011;4201;48.754;8.864;2023-01-10T00:11:18;4.40;;;2.47;;
8327;SDS011;4201;48.754;8.864;2023-01-10T00:13:58;4.90;;;2.27;;
8327;SDS011;4201;48.754;8.864;2023-01-10T00:16:24;3.27;;;1.73;;
8327;SDS011;4201;48.754;8.864;2023-01-10T00:18:50;3.20;;;1.90;;
8327;SDS011;4201;48.754;8.864;2023-01-10T00:21:17;2.60;;;1.73;;
8327;SDS011;4201;48.754;8.864;2023-01-10T00:23:43;5.10;;;2.23;;
8327;SDS011;4201;48.754;8.864;2023-01-10T00:26:10;3.60;;;1.77;;
8327;SDS011;4201;48.754;8.864;2023-01-10T00:28:37;3.10;;;1.70;;
8327;SDS011;4201;48.754;8.864;2023-01-10T00:31:04;3.13;;;1.90;;
8327;SDS011;4201;48.754;8.864;2023-01-10T00:33:31;2.73;;;1.57;;
8327;SDS011;4201;48.754;8.864;2023-01-10T00:35:57;3.43;;;1.80;;
8327;SDS011;4201;48.754;8.864;2023-01-10T00:38:23;2.47;;;1.60;;
8327;SDS011;4201;48.754;8.864;2023-01-10T00:40:50;5.23;;;2.33;;
8327;SDS011;4201;48.754;8.864;2023-01-10T00:43:16;5.30;;;2.00;;
8327;SDS011;4201;48.754;8.864;2023-01-10T00:45:58;2.50;;;1.50;;
8327;SDS011;4201;48.754;8.864;2023-01-10T00:48:25;1.93;;;1.07;;
8327;SDS011;4201;48.754;8.864;2023-01-10T00:50:51;4.70;;;1.90;;
8327;SDS011;4201;48.754;8.864;2023-01-10T00:53:17;3.53;;;1.20;;
8327;SDS011;4201;48.754;8.864;2023-01-10T00:55:43;2.00;;;1.30;;
8327;SDS011;4201;48.754;8.864;2023-01-10T00:58:10;4.00;;;1.30;;
8327;SDS011;4201;48.754;8.864;2023-01-10T01:00:37;3.87;;;1.70;;
8327;SDS011;4201;48.754;8.864;2023-01-10T01:03:05;2.50;;;1.87;;
8327;SDS011;4201;48.754;8.864;2023-01-10T01:05:38;2.67;;;1.10;;
8327;SDS011;4201;48.754;8.864;2023-01-10T01:08:04;2.80;;;1.80;;
8327;SDS011;4201;48.754;8.864;2023-01-10T01:10:30;6.20;;;2.53;;
8327;SDS011;4201;48.754;8.864;2023-01-10T01:12:57;3.00;;;1.00;;
8327;SDS011;4201;48.754;8.864;2023-01-10T01:15:24;3.93;;;1.43;;
8327;SDS011;4201;48.754;8.864;2023-01-10T01:17:51;2.50;;;1.23;;
8327;SDS011;4201;48.754;8.864;2023-01-10T01:20:18;2.43;;;1.00;;
8327;SDS011;4201;48.754;8.864;2023-01-10T01:22:45;2.73;;;1.40;;
8327;SDS011;4201;48.754;8.864;2023-01-10T01:25:12;1.60;;;0.80;;
8327;SDS011;4201;48.754;8.864;2023-01-10T01:27:39;3.00;;;1.10;;
8327;SDS011;4201;48.754;8.864;2023-01-10T01:30:06;1.53;;;0.60;;
8327;SDS011;4201;48.754;8.864;2023-01-10T01:32:32;2.03;;;0.80;;
8327;SDS011;4201;48.754;8.864;2023-01-10T01:34:58;2.73;;;0.90;;
8327;SDS011;4201;48.754;8.864;2023-01-10T01:37:26;2.20;;;0.80;;
8327;SDS011;4201;48.754;8.864;2023-01-10T01:39:52;2.40;;;0.80;;
8327;SDS011;4201;48.754;8.864;2023-01-10T01:42:20;1.50;;;0.70;;
8327;SDS011;4201;48.754;8.864;2023-01-10T01:47:27;1.80;;;0.80;;
8327;SDS011;4201;48.754;8.864;2023-01-10T01:49:53;2.77;;;1.23;;
8327;SDS011;4201;48.754;8.864;2023-01-10T01:52:22;2.13;;;0.97;;
8327;SDS011;4201;48.754;8.864;2023-01-10T01:54:51;3.13;;;1.10;;
8327;SDS011;4201;48.754;8.864;2023-01-10T01:57:19;2.60;;;0.80;;
8327;SDS011;4201;48.754;8.864;2023-01-10T01:59:47;2.07;;;1.00;;
8327;SDS011;4201;48.754;8.864;2023-01-10T02:02:15;2.50;;;1.00;;
8327;SDS011;4201;48.754;8.864;2023-01-10T02:04:44;2.00;;;0.90;;
8327;SDS011;4201;48.754;8.864;2023-01-10T02:07:12;4.70;;;1.00;;
8327;SDS011;4201;48.754;8.864;2023-01-10T02:09:39;3.97;;;1.20;;
8327;SDS011;4201;48.754;8.864;2023-01-10T02:12:09;7.50;;;1.60;;
8327;SDS011;4201;48.754;8.864;2023-01-10T02:14:35;3.23;;;1.20;;
8327;SDS011;4201;48.754;8.864;2023-01-10T02:17:03;4.60;;;1.47;;
8327;SDS011;4201;48.754;8.864;2023-01-10T02:19:33;6.10;;;1.27;;
8327;SDS011;4201;48.754;8.864;2023-01-10T02:22:09;2.43;;;1.00;;
8327;SDS011;4201;48.754;8.864;2023-01-10T02:27:36;4.60;;;0.93;;
8327;SDS011;4201;48.754;8.864;2023-01-10T02:30:16;3.40;;;2.50;;
8327;SDS011;4201;48.754;8.864;2023-01-10T02:32:49;3.37;;;1.00;;
8327;SDS011;4201;48.754;8.864;2023-01-10T02:35:22;4.30;;;1.20;;
8327;SDS011;4201;48.754;8.864;2023-01-10T02:37:52;2.73;;;1.17;;
8327;SDS011;4201;48.754;8.864;2023-01-10T02:40:23;2.33;;;1.20;;
8327;SDS011;4201;48.754;8.864;2023-01-10T02:42:51;2.33;;;1.30;;
8327;SDS011;4201;48.754;8.864;2023-01-10T02:45:22;4.50;;;1.30;;
8327;SDS011;4201;48.754;8.864;2023-01-10T02:47:51;4.50;;;1.60;;
8327;SDS011;4201;48.754;8.864;2023-01-10T02:50:27;8.67;;;2.20;;
8327;SDS011;4201;48.754;8.864;2023-01-10T02:52:54;4.67;;;2.13;;
8327;SDS011;4201;48.754;8.864;2023-01-10T02:55:21;4.53;;;2.57;;
8327;SDS011;4201;48.754;8.864;2023-01-10T02:57:50;4.63;;;2.17;;
8327;SDS011;4201;48.754;8.864;2023-01-10T03:00:30;3.80;;;2.37;;
8327;SDS011;4201;48.754;8.864;2023-01-10T03:03:07;10.73;;;2.50;;
8327;SDS011;4201;48.754;8.864;2023-01-10T03:05:38;11.87;;;2.43;;
8327;SDS011;4201;48.754;8.864;2023-01-10T03:08:09;9.80;;;2.87;;
8327;SDS011;4201;48.754;8.864;2023-01-10T03:10:38;6.37;;;2.23;;
8327;SDS011;4201;48.754;8.864;2023-01-10T03:13:07;5.70;;;2.30;;
8327;SDS011;4201;48.754;8.864;2023-01-10T03:15:36;5.97;;;2.60;;
8327;SDS011;4201;48.754;8.864;2023-01-10T03:18:03;6.23;;;2.83;;
8327;SDS011;4201;48.754;8.864;2023-01-10T03:20:33;5.30;;;1.90;;
8327;SDS011;4201;48.754;8.864;2023-01-10T03:23:03;5.53;;;2.33;;
8327;SDS011;4201;48.754;8.864;2023-01-10T03:25:31;4.70;;;2.00;;
8327;SDS011;4201;48.754;8.864;2023-01-10T03:27:59;4.33;;;1.50;;
8327;SDS011;4201;48.754;8.864;2023-01-10T03:30:29;4.53;;;2.80;;
8327;SDS011;4201;48.754;8.864;2023-01-10T03:32:56;4.07;;;2.00;;
8327;SDS011;4201;48.754;8.864;2023-01-10T03:35:25;2.53;;;1.13;;
8327;SDS011;4201;48.754;8.864;2023-01-10T03:37:55;3.07;;;1.53;;
8327;SDS011;4201;48.754;8.864;2023-01-10T03:40:25;3.20;;;1.63;;
8327;SDS011;4201;48.754;8.864;2023-01-10T03:42:54;6.00;;;1.67;;
8327;SDS011;4201;48.754;8.864;2023-01-10T03:45:41;3.20;;;1.70;;
8327;SDS011;4201;48.754;8.864;2023-01-10T03:48:08;6.10;;;1.60;;
8327;SDS011;4201;48.754;8.864;2023-01-10T03:50:36;3.50;;;1.73;;
8327;SDS011;4201;48.754;8.864;2023-01-10T03:53:03;6.00;;;2.00;;
8327;SDS011;4201;48.754;8.864;2023-01-10T03:55:30;5.63;;;2.17;;
8327;SDS011;4201;48.754;8.864;2023-01-10T03:57:57;9.90;;;2.40;;
8327;SDS011;4201;48.754;8.864;2023-01-10T04:00:24;9.10;;;2.57;;
8327;SDS011;4201;48.754;8.864;2023-01-10T04:02:50;6.80;;;2.30;;
8327;SDS011;4201;48.754;8.864;2023-01-10T04:05:16;8.90;;;2.40;;
8327;SDS011;4201;48.754;8.864;2023-01-10T04:07:43;8.03;;;2.20;;
8327;SDS011;4201;48.754;8.864;2023-01-10T04:10:10;8.30;;;3.10;;
8327;SDS011;4201;48.754;8.864;2023-01-10T04:12:37;10.07;;;2.17;;
8327;SDS011;4201;48.754;8.864;2023-01-10T04:15:03;5.20;;;1.83;;
8327;SDS011;4201;48.754;8.864;2023-01-10T04:17:30;6.20;;;2.40;;
8327;SDS011;4201;48.754;8.864;2023-01-10T04:19:56;10.33;;;2.70;;
8327;SDS011;4201;48.754;8.864;2023-01-10T04:22:22;5.50;;;1.93;;
8327;SDS011;4201;48.754;8.864;2023-01-10T04:24:48;8.50;;;2.67;;
8327;SDS011;4201;48.754;8.864;2023-01-10T04:27:17;8.90;;;2.30;;
8327;SDS011;4201;48.754;8.864;2023-01-10T04:29:44;12.13;;;2.50;;
8327;SDS011;4201;48.754;8.864;2023-01-10T04:32:10;7.40;;;2.30;;
8327;SDS011;4201;48.754;8.864;2023-01-10T04:34:36;6.40;;;2.70;;
8327;SDS011;4201;48.754;8.864;2023-01-10T04:37:03;5.43;;;2.33;;
8327;SDS011;4201;48.754;8.864;2023-01-10T04:39:29;9.33;;;2.47;;
8327;SDS011;4201;48.754;8.864;2023-01-10T04:41:55;10.77;;;2.77;;
8327;SDS011;4201;48.754;8.864;2023-01-10T04:44:23;9.80;;;2.87;;
8327;SDS011;4201;48.754;8.864;2023-01-10T04:46:49;7.47;;;3.90;;
8327;SDS011;4201;48.754;8.864;2023-01-10T04:49:15;8.80;;;2.43;;
8327;SDS011;4201;48.754;8.864;2023-01-10T04:51:41;9.33;;;3.10;;
8327;SDS011;4201;48.754;8.864;2023-01-10T04:54:08;13.10;;;3.33;;
8327;SDS011;4201;48.754;8.864;2023-01-10T04:56:34;11.37;;;3.10;;
8327;SDS011;4201;48.754;8.864;2023-01-10T04:59:00;14.10;;;3.87;;
8327;SDS011;4201;48.754;8.864;2023-01-10T05:01:28;7.40;;;3.07;;
8327;SDS011;4201;48.754;8.864;2023-01-10T05:03:54;26.10;;;5.00;;
8327;SDS011;4201;48.754;8.864;2023-01-10T05:06:21;10.27;;;3.83;;
8327;SDS011;4201;48.754;8.864;2023-01-10T05:08:48;13.23;;;4.10;;
8327;SDS011;4201;48.754;8.864;2023-01-10T05:11:14;12.33;;;3.30;;
8327;SDS011;4201;48.754;8.864;2023-01-10T05:13:40;12.10;;;3.50;;
8327;SDS011;4201;48.754;8.864;2023-01-10T05:16:07;19.43;;;4.43;;
8327;SDS011;4201;48.754;8.864;2023-01-10T05:18:34;10.27;;;3.60;;
8327;SDS011;4201;48.754;8.864;2023-01-10T05:21:01;15.17;;;3.83;;
8327;SDS011;4201;48.754;8.864;2023-01-10T05:23:27;14.97;;;3.80;;
8327;SDS011;4201;48.754;8.864;2023-01-10T05:25:53;17.40;;;3.90;;
8327;SDS011;4201;48.754;8.864;2023-01-10T05:28:20;15.33;;;3.17;;
8327;SDS011;4201;48.754;8.864;2023-01-10T05:30:46;12.50;;;3.17;;
8327;SDS011;4201;48.754;8.864;2023-01-10T05:33:12;13.17;;;3.73;;
8327;SDS011;4201;48.754;8.864;2023-01-10T05:35:40;11.70;;;3.77;;
8327;SDS011;4201;48.754;8.864;2023-01-10T05:38:06;16.37;;;3.80;;
8327;SDS011;4201;48.754;8.864;2023-01-10T05:40:32;17.30;;;3.83;;
8327;SDS011;4201;48.754;8.864;2023-01-10T05:42:58;14.83;;;3.90;;
8327;SDS011;4201;48.754;8.864;2023-01-10T05:45:24;12.50;;;3.67;;
8327;SDS011;4201;48.754;8.864;2023-01-10T05:47:51;11.43;;;3.60;;
8327;SDS011;4201;48.754;8.864;2023-01-10T05:50:17;16.40;;;4.27;;
8327;SDS011;4201;48.754;8.864;2023-01-10T05:52:45;12.63;;;3.50;;
8327;SDS011;4201;48.754;8.864;2023-01-10T05:55:11;17.20;;;3.37;;
8327;SDS011;4201;48.754;8.864;2023-01-10T05:57:37;17.23;;;6.33;;
8327;SDS011;4201;48.754;8.864;2023-01-10T06:00:04;11.33;;;4.53;;
8327;SDS011;4201;48.754;8.864;2023-01-10T06:02:30;16.07;;;2.70;;
8327;SDS011;4201;48.754;8.864;2023-01-10T06:04:57;7.73;;;3.10;;
8327;SDS011;4201;48.754;8.864;2023-01-10T06:07:23;12.10;;;3.07;;
8327;SDS011;4201;48.754;8.864;2023-01-10T06:09:50;11.27;;;3.20;;
8327;SDS011;4201;48.754;8.864;2023-01-10T06:12:17;11.47;;;3.13;;
8327;SDS011;4201;48.754;8.864;2023-01-10T06:14:45;15.20;;;4.00;;
8327;SDS011;4201;48.754;8.864;2023-01-10T06:17:11;15.23;;;3.47;;
8327;SDS011;4201;48.754;8.864;2023-01-10T06:19:37;6.63;;;2.47;;
8327;SDS011;4201;48.754;8.864;2023-01-10T06:22:03;8.97;;;3.03;;
8327;SDS011;4201;48.754;8.864;2023-01-10T06:24:30;13.00;;;3.07;;
8327;SDS011;4201;48.754;8.864;2023-01-10T06:26:57;8.57;;;3.00;;
8327;SDS011;4201;48.754;8.864;2023-01-10T06:29:24;9.67;;;2.50;;
8327;SDS011;4201;48.754;8.864;2023-01-10T06:31:50;8.00;;;2.90;;
8327;SDS011;4201;48.754;8.864;2023-01-10T06:34:16;11.33;;;4.13;;
8327;SDS011;4201;48.754;8.864;2023-01-10T06:36:42;12.60;;;4.33;;
8327;SDS011;4201;48.754;8.864;2023-01-10T06:39:09;10.87;;;3.43;;
8327;SDS011;4201;48.754;8.864;2023-01-10T06:41:35;13.23;;;3.07;;
8327;SDS011;4201;48.754;8.864;2023-01-10T06:44:03;11.83;;;3.20;;
8327;SDS011;4201;48.754;8.864;2023-01-10T06:46:30;11.20;;;3.57;;
8327;SDS011;4201;48.754;8.864;2023-01-10T06:48:56;13.87;;;2.83;;
8327;SDS011;4201;48.754;8.864;2023-01-10T06:51:22;10.30;;;2.80;;
8327;SDS011;4201;48.754;8.864;2023-01-10T06:53:48;11.10;;;4.10;;
8327;SDS011;4201;48.754;8.864;2023-01-10T06:56:15;10.17;;;3.40;;
8327;SDS011;4201;48.754;8.864;2023-01-10T06:58:41;10.50;;;3.10;;
8327;SDS011;4201;48.754;8.864;2023-01-10T07:01:13;15.00;;;3.40;;
8327;SDS011;4201;48.754;8.864;2023-01-10T07:03:39;16.23;;;4.00;;
8327;SDS011;4201;48.754;8.864;2023-01-10T07:06:06;12.97;;;4.50;;
8327;SDS011;4201;48.754;8.864;2023-01-10T07:08:34;11.53;;;3.30;;
8327;SDS011;4201;48.754;8.864;2023-01-10T07:11:00;15.27;;;4.00;;
8327;SDS011;4201;48.754;8.864;2023-01-10T07:13:26;11.63;;;3.77;;
8327;SDS011;4201;48.754;8.864;2023-01-10T07:15:59;7.07;;;2.80;;
8327;SDS011;4201;48.754;8.864;2023-01-10T07:18:27;11.80;;;3.30;;
8327;SDS011;4201;48.754;8.864;2023-01-10T07:20:53;8.80;;;2.93;;
8327;SDS011;4201;48.754;8.864;2023-01-10T07:23:19;16.73;;;3.30;;
8327;SDS011;4201;48.754;8.864;2023-01-10T07:25:46;5.80;;;2.53;;
8327;SDS011;4201;48.754;8.864;2023-01-10T07:28:12;13.33;;;3.33;;
8327;SDS011;4201;48.754;8.864;2023-01-10T07:30:38;23.33;;;4.30;;
8327;SDS011;4201;48.754;8.864;2023-01-10T07:33:05;9.20;;;3.17;;
8327;SDS011;4201;48.754;8.864;2023-01-10T07:35:32;9.10;;;3.00;;
8327;SDS011;4201;48.754;8.864;2023-01-10T07:37:59;11.67;;;4.47;;
8327;SDS011;4201;48.754;8.864;2023-01-10T07:40:27;9.20;;;3.17;;
8327;SDS011;4201;48.754;8.864;2023-01-10T07:42:55;14.63;;;3.30;;
8327;SDS011;4201;48.754;8.864;2023-01-10T07:45:21;9.33;;;4.00;;
8327;SDS011;4201;48.754;8.864;2023-01-10T07:47:47;10.87;;;3.30;;
8327;SDS011;4201;48.754;8.864;2023-01-10T07:50:14;10.70;;;2.90;;
8327;SDS011;4201;48.754;8.864;2023-01-10T07:52:42;12.23;;;3.87;;
8327;SDS011;4201;48.754;8.864;2023-01-10T07:55:09;17.03;;;3.10;;
8327;SDS011;4201;48.754;8.864;2023-01-10T07:57:35;7.00;;;2.60;;
8327;SDS011;4201;48.754;8.864;2023-01-10T08:00:02;10.87;;;3.93;;
8327;SDS011;4201;48.754;8.864;2023-01-10T08:02:28;8.53;;;3.30;;
8327;SDS011;4201;48.754;8.864;2023-01-10T08:04:54;11.83;;;3.50;;
8327;SDS011;4201;48.754;8.864;2023-01-10T08:07:20;9.63;;;3.20;;
8327;SDS011;4201;48.754;8.864;2023-01-10T08:09:48;9.73;;;4.40;;
8327;SDS011;4201;48.754;8.864;2023-01-10T08:12:14;7.67;;;3.07;;
8327;SDS011;4201;48.754;8.864;2023-01-10T08:14:40;13.43;;;3.87;;
8327;SDS011;4201;48.754;8.864;2023-01-10T08:17:07;17.50;;;3.20;;
8327;SDS011;4201;48.754;8.864;2023-01-10T08:19:34;6.60;;;2.80;;
8327;SDS011;4201;48.754;8.864;2023-01-10T08:22:00;18.63;;;3.43;;
8327;SDS011;4201;48.754;8.864;2023-01-10T08:24:27;8.80;;;3.30;;
8327;SDS011;4201;48.754;8.864;2023-01-10T08:26:57;6.50;;;3.17;;
8327;SDS011;4201;48.754;8.864;2023-01-10T08:29:24;14.10;;;4.30;;
8327;SDS011;4201;48.754;8.864;2023-01-10T08:31:50;14.67;;;3.53;;
8327;SDS011;4201;48.754;8.864;2023-01-10T08:34:16;7.63;;;3.33;;
8327;SDS011;4201;48.754;8.864;2023-01-10T08:36:42;10.57;;;3.57;;
8327;SDS011;4201;48.754;8.864;2023-01-10T08:39:09;9.23;;;3.03;;
8327;SDS011;4201;48.754;8.864;2023-01-10T08:41:35;13.77;;;5.20;;
8327;SDS011;4201;48.754;8.864;2023-01-10T08:44:04;13.10;;;6.83;;
8327;SDS011;4201;48.754;8.864;2023-01-10T08:46:31;17.47;;;4.90;;
8327;SDS011;4201;48.754;8.864;2023-01-10T08:48:57;16.87;;;5.03;;
8327;SDS011;4201;48.754;8.864;2023-01-10T08:51:23;16.33;;;4.47;;
8327;SDS011;4201;48.754;8.864;2023-01-10T08:53:49;12.73;;;4.13;;
8327;SDS011;4201;48.754;8.864;2023-01-10T08:56:16;10.33;;;4.03;;
8327;SDS011;4201;48.754;8.864;2023-01-10T08:58:42;15.90;;;4.27;;
8327;SDS011;4201;48.754;8.864;2023-01-10T09:01:10;10.07;;;3.80;;
8327;SDS011;4201;48.754;8.864;2023-01-10T09:03:37;10.03;;;3.50;;
8327;SDS011;4201;48.754;8.864;2023-01-10T09:06:04;11.07;;;3.90;;
8327;SDS011;4201;48.754;8.864;2023-01-10T09:08:31;11.13;;;3.83;;
8327;SDS011;4201;48.754;8.864;2023-01-10T09:10:57;9.03;;;3.60;;
8327;SDS011;4201;48.754;8.864;2023-01-10T09:13:23;10.30;;;3.10;;
8327;SDS011;4201;48.754;8.864;2023-01-10T09:15:50;9.97;;;3.07;;
8327;SDS011;4201;48.754;8.864;2023-01-10T09:18:17;9.97;;;3.63;;
8327;SDS011;4201;48.754;8.864;2023-01-10T09:20:44;10.13;;;4.67;;
8327;SDS011;4201;48.754;8.864;2023-01-10T09:23:11;15.70;;;4.47;;
8327;SDS011;4201;48.754;8.864;2023-01-10T09:25:41;6.60;;;2.90;;
8327;SDS011;4201;48.754;8.864;2023-01-10T09:28:08;9.33;;;2.97;;
8327;SDS011;4201;48.754;8.864;2023-01-10T09:30:34;13.93;;;3.53;;
8327;SDS011;4201;48.754;8.864;2023-01-10T09:33:00;9.40;;;3.40;;
8327;SDS011;4201;48.754;8.864;2023-01-10T09:35:28;8.43;;;3.77;;
8327;SDS011;4201;48.754;8.864;2023-01-10T09:37:55;8.90;;;3.00;;
8327;SDS011;4201;48.754;8.864;2023-01-10T09:40:25;12.23;;;3.50;;
8327;SDS011;4201;48.754;8.864;2023-01-10T09:42:56;11.10;;;3.67;;
8327;SDS011;4201;48.754;8.864;2023-01-10T09:45:29;9.77;;;3.30;;
8327;SDS011;4201;48.754;8.864;2023-01-10T09:47:58;10.87;;;3.47;;
8327;SDS011;4201;48.754;8.864;2023-01-10T09:50:29;15.63;;;4.00;;
8327;SDS011;4201;48.754;8.864;2023-01-10T09:52:58;7.37;;;3.10;;
8327;SDS011;4201;48.754;8.864;2023-01-10T09:55:28;11.53;;;3.83;;
8327;SDS011;4201;48.754;8.864;2023-01-10T09:57:56;27.90;;;5.63;;
8327;SDS011;4201;48.754;8.864;2023-01-10T10:00:23;13.80;;;3.53;;
8327;SDS011;4201;48.754;8.864;2023-01-10T10:02:52;11.50;;;4.00;;
8327;SDS011;4201;48.754;8.864;2023-01-10T10:05:20;8.50;;;3.90;;
8327;SDS011;4201;48.754;8.864;2023-01-10T10:07:50;10.30;;;4.03;;
8327;SDS011;4201;48.754;8.864;2023-01-10T10:10:17;13.30;;;3.57;;
8327;SDS011;4201;48.754;8.864;2023-01-10T10:12:47;11.90;;;5.40;;
8327;SDS011;4201;48.754;8.864;2023-01-10T10:15:19;9.50;;;3.70;;
8327;SDS011;4201;48.754;8.864;2023-01-10T10:17:48;7.93;;;3.00;;
8327;SDS011;4201;48.754;8.864;2023-01-10T10:20:25;16.23;;;3.13;;
8327;SDS011;4201;48.754;8.864;2023-01-10T10:23:00;11.07;;;2.93;;
8327;SDS011;4201;48.754;8.864;2023-01-10T10:25:34;7.40;;;3.17;;
8327;SDS011;4201;48.754;8.864;2023-01-10T10:28:11;9.17;;;2.53;;
8327;SDS011;4201;48.754;8.864;2023-01-10T10:30:44;5.50;;;3.83;;
8327;SDS011;4201;48.754;8.864;2023-01-10T10:33:23;12.67;;;3.10;;
8327;SDS011;4201;48.754;8.864;2023-01-10T10:35:54;9.83;;;2.60;;
8327;SDS011;4201;48.754;8.864;2023-01-10T10:38:23;11.93;;;2.90;;
8327;SDS011;4201;48.754;8.864;2023-01-10T10:40:53;13.93;;;4.87;;
8327;SDS011;4201;48.754;8.864;2023-01-10T10:43:20;10.40;;;3.23;;
8327;SDS011;4201;48.754;8.864;2023-01-10T10:45:50;5.60;;;2.40;;
8327;SDS011;4201;48.754;8.864;2023-01-10T10:48:18;13.23;;;3.10;;
8327;SDS011;4201;48.754;8.864;2023-01-10T10:50:48;7.67;;;2.93;;
8327;SDS011;4201;48.754;8.864;2023-01-10T10:53:15;9.60;;;2.10;;
8327;SDS011;4201;48.754;8.864;2023-01-10T10:55:44;9.43;;;2.10;;
8327;SDS011;4201;48.754;8.864;2023-01-10T10:58:11;8.70;;;2.80;;
8327;SDS011;4201;48.754;8.864;2023-01-10T11:00:38;10.53;;;3.03;;
8327;SDS011;4201;48.754;8.864;2023-01-10T11:03:09;8.07;;;3.13;;
8327;SDS011;4201;48.754;8.864;2023-01-10T11:05:38;15.83;;;3.70;;
8327;SDS011;4201;48.754;8.864;2023-01-10T11:08:05;7.27;;;2.97;;
8327;SDS011;4201;48.754;8.864;2023-01-10T11:10:34;10.50;;;2.60;;
8327;SDS011;4201;48.754;8.864;2023-01-10T11:13:02;7.83;;;2.60;;
8327;SDS011;4201;48.754;8.864;2023-01-10T11:15:39;14.20;;;3.53;;
8327;SDS011;4201;48.754;8.864;2023-01-10T11:18:08;10.23;;;2.60;;
8327;SDS011;4201;48.754;8.864;2023-01-10T11:20:35;16.43;;;3.40;;
8327;SDS011;4201;48.754;8.864;2023-01-10T11:23:02;15.17;;;3.20;;
8327;SDS011;4201;48.754;8.864;2023-01-10T11:25:28;8.70;;;2.83;;
8327;SDS011;4201;48.754;8.864;2023-01-10T11:27:56;6.40;;;2.13;;
8327;SDS011;4201;48.754;8.864;2023-01-10T11:30:24;6.73;;;2.47;;
8327;SDS011;4201;48.754;8.864;2023-01-10T11:32:52;11.13;;;3.00;;
8327;SDS011;4201;48.754;8.864;2023-01-10T11:35:20;6.07;;;2.10;;
8327;SDS011;4201;48.754;8.864;2023-01-10T11:37:56;8.43;;;2.40;;
8327;SDS011;4201;48.754;8.864;2023-01-10T11:40:25;10.83;;;2.93;;
8327;SDS011;4201;48.754;8.864;2023-01-10T11:42:52;9.10;;;3.10;;
8327;SDS011;4201;48.754;8.864;2023-01-10T11:45:21;12.27;;;2.83;;
8327;SDS011;4201;48.754;8.864;2023-01-10T11:47:49;8.47;;;2.43;;
8327;SDS011;4201;48.754;8.864;2023-01-10T11:50:20;6.43;;;3.10;;
8327;SDS011;4201;48.754;8.864;2023-01-10T11:52:47;12.40;;;2.80;;
8327;SDS011;4201;48.754;8.864;2023-01-10T11:55:16;7.40;;;2.30;;
8327;SDS011;4201;48.754;8.864;2023-01-10T11:57:43;8.00;;;2.60;;
8327;SDS011;4201;48.754;8.864;2023-01-10T12:00:10;11.50;;;2.37;;
8327;SDS011;4201;48.754;8.864;2023-01-10T12:02:38;7.07;;;2.20;;
8327;SDS011;4201;48.754;8.864;2023-01-10T12:05:07;8.37;;;2.60;;
8327;SDS011;4201;48.754;8.864;2023-01-10T12:10:18;11.07;;;3.70;;
8327;SDS011;4201;48.754;8.864;2023-01-10T12:12:51;6.40;;;2.20;;
8327;SDS011;4201;48.754;8.864;2023-01-10T12:15:21;6.87;;;2.00;;
8327;SDS011;4201;48.754;8.864;2023-01-10T12:17:48;11.30;;;2.40;;
8327;SDS011;4201;48.754;8.864;2023-01-10T12:20:16;6.70;;;2.40;;
8327;SDS011;4201;48.754;8.864;2023-01-10T12:22:42;12.50;;;2.30;;
8327;SDS011;4201;48.754;8.864;2023-01-10T12:25:14;6.70;;;2.40;;
8327;SDS011;4201;48.754;8.864;2023-01-10T12:27:42;9.93;;;2.77;;
8327;SDS011;4201;48.754;8.864;2023-01-10T12:30:10;5.90;;;2.00;;
8327;SDS011;4201;48.754;8.864;2023-01-10T12:32:40;6.70;;;2.60;;
8327;SDS011;4201;48.754;8.864;2023-01-10T12:35:09;11.43;;;2.80;;
8327;SDS011;4201;48.754;8.864;2023-01-10T12:37:39;14.30;;;2.47;;
8327;SDS011;4201;48.754;8.864;2023-01-10T12:40:10;11.27;;;3.23;;
8327;SDS011;4201;48.754;8.864;2023-01-10T12:42:40;5.50;;;2.23;;
8327;SDS011;4201;48.754;8.864;2023-01-10T12:45:26;9.30;;;2.20;;
8327;SDS011;4201;48.754;8.864;2023-01-10T12:47:56;13.10;;;3.23;;
8327;SDS011;4201;48.754;8.864;2023-01-10T12:50:24;6.03;;;2.07;;
8327;SDS011;4201;48.754;8.864;2023-01-10T12:52:56;15.60;;;2.57;;
8327;SDS011;4201;48.754;8.864;2023-01-10T12:55:25;14.27;;;2.70;;
8327;SDS011;4201;48.754;8.864;2023-01-10T12:57:52;10.53;;;2.13;;
8327;SDS011;4201;48.754;8.864;2023-01-10T13:00:21;11.20;;;2.33;;
8327;SDS011;4201;48.754;8.864;2023-01-10T13:02:50;11.30;;;2.87;;
8327;SDS011;4201;48.754;8.864;2023-01-10T13:05:18;13.50;;;2.10;;
8327;SDS011;4201;48.754;8.864;2023-01-10T13:07:45;6.90;;;2.30;;
8327;SDS011;4201;48.754;8.864;2023-01-10T13:10:14;8.53;;;2.40;;
8327;SDS011;4201;48.754;8.864;2023-01-10T13:12:43;8.13;;;2.00;;
8327;SDS011;4201;48.754;8.864;2023-01-10T13:15:14;4.87;;;2.50;;
8327;SDS011;4201;48.754;8.864;2023-01-10T13:17:44;11.17;;;2.70;;
8327;SDS011;4201;48.754;8.864;2023-01-10T13:20:28;11.43;;;2.50;;
8327;SDS011;4201;48.754;8.864;2023-01-10T13:22:55;12.27;;;2.80;;
8327;SDS011;4201;48.754;8.864;2023-01-10T13:25:24;9.10;;;2.50;;
8327;SDS011;4201;48.754;8.864;2023-01-10T13:27:54;10.47;;;2.83;;
8327;SDS011;4201;48.754;8.864;2023-01-10T13:30:25;4.37;;;2.03;;
8327;SDS011;4201;48.754;8.864;2023-01-10T13:32:55;8.63;;;2.80;;
8327;SDS011;4201;48.754;8.864;2023-01-10T13:35:22;12.60;;;2.43;;
8327;SDS011;4201;48.754;8.864;2023-01-10T13:37:50;8.37;;;2.60;;
8327;SDS011;4201;48.754;8.864;2023-01-10T13:40:18;7.63;;;2.53;;
8327;SDS011;4201;48.754;8.864;2023-01-10T13:42:47;7.47;;;2.13;;
8327;SDS011;4201;48.754;8.864;2023-01-10T13:45:45;5.97;;;2.00;;
8327;SDS011;4201;48.754;8.864;2023-01-10T13:48:24;5.97;;;2.20;;
8327;SDS011;4201;48.754;8.864;2023-01-10T13:50:56;8.80;;;2.03;;
8327;SDS011;4201;48.754;8.864;2023-01-10T13:56:28;13.57;;;2.60;;
8327;SDS011;4201;48.754;8.864;2023-01-10T13:58:56;9.30;;;2.20;;
8327;SDS011;4201;48.754;8.864;2023-01-10T14:01:40;7.03;;;2.43;;
8327;SDS011;4201;48.754;8.864;2023-01-10T14:04:25;7.90;;;2.07;;
8327;SDS011;4201;48.754;8.864;2023-01-10T14:06:53;9.60;;;2.60;;
8327;SDS011;4201;48.754;8.864;2023-01-10T14:09:30;13.27;;;2.87;;
8327;SDS011;4201;48.754;8.864;2023-01-10T14:11:58;8.73;;;2.47;;
8327;SDS011;4201;48.754;8.864;2023-01-10T14:14:27;7.83;;;2.13;;
8327;SDS011;4201;48.754;8.864;2023-01-10T14:16:55;8.70;;;2.80;;
8327;SDS011;4201;48.754;8.864;2023-01-10T14:19:23;6.77;;;2.60;;
8327;SDS011;4201;48.754;8.864;2023-01-10T14:21:51;9.90;;;2.00;;
8327;SDS011;4201;48.754;8.864;2023-01-10T14:24:21;7.60;;;2.10;;
8327;SDS011;4201;48.754;8.864;2023-01-10T14:26:49;6.13;;;2.30;;
8327;SDS011;4201;48.754;8.864;2023-01-10T14:29:15;9.23;;;2.50;;
8327;SDS011;4201;48.754;8.864;2023-01-10T14:31:44;6.93;;;2.90;;
8327;SDS011;4201;48.754;8.864;2023-01-10T14:34:12;7.47;;;2.53;;
8327;SDS011;4201;48.754;8.864;2023-01-10T14:36:44;12.37;;;2.97;;
8327;SDS011;4201;48.754;8.864;2023-01-10T14:39:13;6.87;;;2.40;;
8327;SDS011;4201;48.754;8.864;2023-01-10T14:41:41;9.27;;;2.90;;
8327;SDS011;4201;48.754;8.864;2023-01-10T14:44:11;8.03;;;3.20;;
8327;SDS011;4201;48.754;8.864;2023-01-10T14:46:42;13.70;;;2.83;;
8327;SDS011;4201;48.754;8.864;2023-01-10T14:49:21;8.73;;;2.50;;
8327;SDS011;4201;48.754;8.864;2023-01-10T14:51:48;6.10;;;1.97;;
8327;SDS011;4201;48.754;8.864;2023-01-10T14:54:16;6.33;;;2.50;;
8327;SDS011;4201;48.754;8.864;2023-01-10T14:56:43;6.97;;;2.20;;
8327;SDS011;4201;48.754;8.864;2023-01-10T14:59:17;8.50;;;1.90;;
8327;SDS011;4201;48.754;8.864;2023-01-10T15:01:45;8.57;;;2.03;;
8327;SDS011;4201;48.754;8.864;2023-01-10T15:04:13;8.20;;;1.80;;
8327;SDS011;4201;48.754;8.864;2023-01-10T15:06:51;7.63;;;2.30;;
8327;SDS011;4201;48.754;8.864;2023-01-10T15:09:18;8.53;;;2.60;;
8327;SDS011;4201;48.754;8.864;2023-01-10T15:11:44;11.07;;;2.80;;
8327;SDS011;4201;48.754;8.864;2023-01-10T15:14:11;8.17;;;2.80;;
8327;SDS011;4201;48.754;8.864;2023-01-10T15:16:41;6.60;;;3.67;;
8327;SDS011;4201;48.754;8.864;2023-01-10T15:19:09;10.90;;;3.50;;
8327;SDS011;4201;48.754;8.864;2023-01-10T15:21:39;9.80;;;2.67;;
8327;SDS011;4201;48.754;8.864;2023-01-10T15:26:48;10.13;;;3.47;;
8327;SDS011;4201;48.754;8.864;2023-01-10T15:29:17;16.40;;;3.30;;
8327;SDS011;4201;48.754;8.864;2023-01-10T15:31:46;10.83;;;3.43;;